Amy C — MKWC7 — position and weather

sailwx.info

Track history (hours):
 
Tides and Currents Weather Stations Pressure Air Temp Water Temp Dewpoint Dewpoint Depression Visibility Wind Speed Wind Dir Waves Ship Positions

Amy C

Last reported at 2016-Jun-24 22:33 UTC. Time now 2016-Jun-25 10:41 UTC.
Position N 58°43' W 004°15'.

Length 136 m; draft 7.8 m.

Type: Cargo ship. MMSI: 235010170.

Date/timePositionNaut miles runAvg speedWind from/ knotsBaromVisibWave heightAir tempDewpointWater temp
2016-Jun-24 22:33N 58°43' W 004°15'1413.7
2016-Jun-24 21:33N 58°43' W 003°49'1413.6
2016-Jun-24 20:33N 58°43' W 003°23'1514.7
2016-Jun-24 19:33N 58°43' W 002°54'28814.2
2016-Jun-23 23:19N 57°53' E 006°06'1114.1
2016-Jun-23 22:33N 57°50' E 006°25'1413.9
2016-Jun-23 21:33N 57°48' E 006°51'11214.1
2016-Jun-23 13:33N 57°49' E 010°22'1212.1
2016-Jun-23 12:33N 57°47' E 010°45'7 6.7
2016-Jun-23 11:34N 57°43' E 010°35'0 0.0
2016-Jun-23 10:30N 57°43' E 010°35'0 0.0
2016-Jun-23 09:30N 57°43' E 010°35'2 2.1
2016-Jun-23 08:30N 57°43' E 010°39'8 7.7
2016-Jun-23 07:29N 57°40' E 010°53'17 8.7
2016-Jun-23 05:33N 57°32' E 011°20'4 3.7
2016-Jun-23 04:33N 57°29' E 011°25'6 6.0
2016-Jun-23 03:33N 57°23' E 011°29'1111.0
2016-Jun-23 02:33N 57°13' E 011°35'1313.4
2016-Jun-23 01:33N 57°00' E 011°44'1312.8
2016-Jun-23 00:33N 56°49' E 011°55'1212.1
2016-Jun-22 23:33N 56°37' E 011°58'1312.7
2016-Jun-22 22:33N 56°25' E 012°03'1211.9
2016-Jun-22 21:33N 56°15' E 012°14'1312.7
2016-Jun-22 20:33N 56°07' E 012°32'1413.6
2016-Jun-22 19:34N 55°55' E 012°44'1313.2
2016-Jun-22 18:33N 55°42' E 012°41'10 9.6
2016-Jun-22 17:33N 55°33' E 012°42'1312.9
2016-Jun-22 16:33N 55°20' E 012°41'1312.8
2016-Jun-22 15:33N 55°16' E 013°02'1414.3
2016-Jun-22 14:33N 55°15' E 013°27'1414.4
2016-Jun-22 13:33N 55°14' E 013°52'1414.0
2016-Jun-22 12:33N 55°14' E 014°17'1414.2
2016-Jun-22 11:33N 55°25' E 014°33'1414.2
2016-Jun-22 10:33N 55°32' E 014°56'1414.0
2016-Jun-22 09:33N 55°38' E 015°17'1414.0
2016-Jun-22 08:33N 55°46' E 015°38'  
Track history (hours):
 
Tides and Currents Weather Stations Pressure Air Temp Water Temp Dewpoint Dewpoint Depression Visibility Wind Speed Wind Dir Waves Ship Positions

Amy C

Last reported at 2016-Jun-24 22:33 UTC. Time now 2016-Jun-25 10:41 UTC.
Position N 58°43' W 004°15'.

Length 136 m; draft 7.8 m.

Type: Cargo ship. MMSI: 235010170.

Date/timePositionNaut miles runAvg speedWind from/ knotsBaromVisibWave heightAir tempDewpointWater temp
2016-Jun-24 22:33N 58°43' W 004°15'1413.7
2016-Jun-24 21:33N 58°43' W 003°49'1413.6
2016-Jun-24 20:33N 58°43' W 003°23'1514.7
2016-Jun-24 19:33N 58°43' W 002°54'28814.2
2016-Jun-23 23:19N 57°53' E 006°06'1114.1
2016-Jun-23 22:33N 57°50' E 006°25'1413.9
2016-Jun-23 21:33N 57°48' E 006°51'11214.1
2016-Jun-23 13:33N 57°49' E 010°22'1212.1
2016-Jun-23 12:33N 57°47' E 010°45'7 6.7
2016-Jun-23 11:34N 57°43' E 010°35'0 0.0
2016-Jun-23 10:30N 57°43' E 010°35'0 0.0
2016-Jun-23 09:30N 57°43' E 010°35'2 2.1
2016-Jun-23 08:30N 57°43' E 010°39'8 7.7
2016-Jun-23 07:29N 57°40' E 010°53'17 8.7
2016-Jun-23 05:33N 57°32' E 011°20'4 3.7
2016-Jun-23 04:33N 57°29' E 011°25'6 6.0
2016-Jun-23 03:33N 57°23' E 011°29'1111.0
2016-Jun-23 02:33N 57°13' E 011°35'1313.4
2016-Jun-23 01:33N 57°00' E 011°44'1312.8
2016-Jun-23 00:33N 56°49' E 011°55'1212.1
2016-Jun-22 23:33N 56°37' E 011°58'1312.7
2016-Jun-22 22:33N 56°25' E 012°03'1211.9
2016-Jun-22 21:33N 56°15' E 012°14'1312.7
2016-Jun-22 20:33N 56°07' E 012°32'1413.6
2016-Jun-22 19:34N 55°55' E 012°44'1313.2
2016-Jun-22 18:33N 55°42' E 012°41'10 9.6
2016-Jun-22 17:33N 55°33' E 012°42'1312.9
2016-Jun-22 16:33N 55°20' E 012°41'1312.8
2016-Jun-22 15:33N 55°16' E 013°02'1414.3
2016-Jun-22 14:33N 55°15' E 013°27'1414.4
2016-Jun-22 13:33N 55°14' E 013°52'1414.0
2016-Jun-22 12:33N 55°14' E 014°17'1414.2
2016-Jun-22 11:33N 55°25' E 014°33'1414.2
2016-Jun-22 10:33N 55°32' E 014°56'1414.0
2016-Jun-22 09:33N 55°38' E 015°17'1414.0
2016-Jun-22 08:33N 55°46' E 015°38'  

Dump ship's entire track history